sensor_id;sensor_type;location;lat;lon;timestamp;P1;durP1;ratioP1;P2;durP2;ratioP2
29712;SDS011;16623;53.632;10.016;2023-08-31T00:02:09;13.05;;;9.70;;
29712;SDS011;16623;53.632;10.016;2023-08-31T00:04:35;12.80;;;9.27;;
29712;SDS011;16623;53.632;10.016;2023-08-31T00:07:01;13.60;;;10.10;;
29712;SDS011;16623;53.632;10.016;2023-08-31T00:09:26;15.40;;;10.20;;
29712;SDS011;16623;53.632;10.016;2023-08-31T00:11:52;12.55;;;9.77;;
29712;SDS011;16623;53.632;10.016;2023-08-31T00:14:17;14.27;;;10.10;;
29712;SDS011;16623;53.632;10.016;2023-08-31T00:16:44;13.35;;;9.50;;
29712;SDS011;16623;53.632;10.016;2023-08-31T00:19:13;14.40;;;9.80;;
29712;SDS011;16623;53.632;10.016;2023-08-31T00:21:39;14.18;;;9.05;;
29712;SDS011;16623;53.632;10.016;2023-08-31T00:24:05;15.52;;;9.10;;
29712;SDS011;16623;53.632;10.016;2023-08-31T00:26:32;13.45;;;9.10;;
29712;SDS011;16623;53.632;10.016;2023-08-31T00:28:58;14.30;;;9.32;;
29712;SDS011;16623;53.632;10.016;2023-08-31T00:31:23;13.63;;;9.15;;
29712;SDS011;16623;53.632;10.016;2023-08-31T00:33:49;16.65;;;9.45;;
29712;SDS011;16623;53.632;10.016;2023-08-31T00:36:15;10.80;;;7.93;;
29712;SDS011;16623;53.632;10.016;2023-08-31T00:38:43;12.38;;;8.57;;
29712;SDS011;16623;53.632;10.016;2023-08-31T00:41:08;9.55;;;8.15;;
29712;SDS011;16623;53.632;10.016;2023-08-31T00:43:34;12.70;;;8.13;;
29712;SDS011;16623;53.632;10.016;2023-08-31T00:45:59;9.30;;;7.93;;
29712;SDS011;16623;53.632;10.016;2023-08-31T00:48:25;13.88;;;7.43;;
29712;SDS011;16623;53.632;10.016;2023-08-31T00:50:51;10.20;;;7.10;;
29712;SDS011;16623;53.632;10.016;2023-08-31T00:53:17;10.60;;;7.50;;
29712;SDS011;16623;53.632;10.016;2023-08-31T00:55:46;9.90;;;7.38;;
29712;SDS011;16623;53.632;10.016;2023-08-31T00:58:12;15.07;;;7.60;;
29712;SDS011;16623;53.632;10.016;2023-08-31T01:03:44;10.75;;;6.55;;
29712;SDS011;16623;53.632;10.016;2023-08-31T01:09:09;9.65;;;7.05;;
29712;SDS011;16623;53.632;10.016;2023-08-31T01:12:12;9.77;;;6.50;;
29712;SDS011;16623;53.632;10.016;2023-08-31T01:14:42;9.90;;;6.72;;
29712;SDS011;16623;53.632;10.016;2023-08-31T01:17:11;11.30;;;7.03;;
29712;SDS011;16623;53.632;10.016;2023-08-31T01:22:13;8.60;;;6.20;;
29712;SDS011;16623;53.632;10.016;2023-08-31T01:24:47;8.52;;;6.80;;
29712;SDS011;16623;53.632;10.016;2023-08-31T01:27:13;8.63;;;6.15;;
29712;SDS011;16623;53.632;10.016;2023-08-31T01:29:43;10.07;;;6.60;;
29712;SDS011;16623;53.632;10.016;2023-08-31T01:32:08;12.50;;;7.63;;
29712;SDS011;16623;53.632;10.016;2023-08-31T01:34:34;7.38;;;6.05;;
29712;SDS011;16623;53.632;10.016;2023-08-31T01:37:00;8.70;;;6.32;;
29712;SDS011;16623;53.632;10.016;2023-08-31T01:39:33;12.55;;;7.55;;
29712;SDS011;16623;53.632;10.016;2023-08-31T01:42:06;9.68;;;6.60;;
29712;SDS011;16623;53.632;10.016;2023-08-31T01:44:35;11.50;;;6.75;;
29712;SDS011;16623;53.632;10.016;2023-08-31T01:47:03;9.05;;;6.57;;
29712;SDS011;16623;53.632;10.016;2023-08-31T01:49:36;11.23;;;7.05;;
29712;SDS011;16623;53.632;10.016;2023-08-31T01:52:02;8.18;;;5.90;;
29712;SDS011;16623;53.632;10.016;2023-08-31T01:54:28;7.60;;;6.13;;
29712;SDS011;16623;53.632;10.016;2023-08-31T01:56:54;9.52;;;7.53;;
29712;SDS011;16623;53.632;10.016;2023-08-31T01:59:20;9.27;;;6.80;;
29712;SDS011;16623;53.632;10.016;2023-08-31T02:01:45;11.98;;;6.63;;
29712;SDS011;16623;53.632;10.016;2023-08-31T02:04:10;10.27;;;6.05;;
29712;SDS011;16623;53.632;10.016;2023-08-31T02:06:36;7.88;;;5.70;;
29712;SDS011;16623;53.632;10.016;2023-08-31T02:09:02;9.80;;;5.88;;
29712;SDS011;16623;53.632;10.016;2023-08-31T02:11:28;12.30;;;6.15;;
29712;SDS011;16623;53.632;10.016;2023-08-31T02:13:53;9.82;;;6.13;;
29712;SDS011;16623;53.632;10.016;2023-08-31T02:16:19;9.73;;;5.97;;
29712;SDS011;16623;53.632;10.016;2023-08-31T02:18:47;10.07;;;5.57;;
29712;SDS011;16623;53.632;10.016;2023-08-31T02:21:13;13.40;;;6.95;;
29712;SDS011;16623;53.632;10.016;2023-08-31T02:23:38;8.77;;;6.20;;
29712;SDS011;16623;53.632;10.016;2023-08-31T02:26:04;12.27;;;6.63;;
29712;SDS011;16623;53.632;10.016;2023-08-31T02:28:31;12.30;;;6.53;;
29712;SDS011;16623;53.632;10.016;2023-08-31T02:30:57;9.85;;;6.45;;
29712;SDS011;16623;53.632;10.016;2023-08-31T02:33:24;9.52;;;6.00;;
29712;SDS011;16623;53.632;10.016;2023-08-31T02:35:50;9.20;;;6.03;;
29712;SDS011;16623;53.632;10.016;2023-08-31T02:38:15;8.77;;;6.63;;
29712;SDS011;16623;53.632;10.016;2023-08-31T02:40:41;10.63;;;5.78;;
29712;SDS011;16623;53.632;10.016;2023-08-31T02:43:07;9.95;;;5.70;;
29712;SDS011;16623;53.632;10.016;2023-08-31T02:45:32;8.35;;;5.78;;
29712;SDS011;16623;53.632;10.016;2023-08-31T02:47:58;8.70;;;5.20;;
29712;SDS011;16623;53.632;10.016;2023-08-31T02:50:23;6.95;;;5.05;;
29712;SDS011;16623;53.632;10.016;2023-08-31T02:52:50;9.93;;;5.43;;
29712;SDS011;16623;53.632;10.016;2023-08-31T02:55:16;10.10;;;5.88;;
29712;SDS011;16623;53.632;10.016;2023-08-31T02:57:41;9.23;;;5.47;;
29712;SDS011;16623;53.632;10.016;2023-08-31T03:00:10;6.40;;;5.25;;
29712;SDS011;16623;53.632;10.016;2023-08-31T03:02:38;9.85;;;5.22;;
29712;SDS011;16623;53.632;10.016;2023-08-31T03:05:04;9.48;;;5.05;;
29712;SDS011;16623;53.632;10.016;2023-08-31T03:07:30;8.98;;;4.78;;
29712;SDS011;16623;53.632;10.016;2023-08-31T03:09:55;8.55;;;5.53;;
29712;SDS011;16623;53.632;10.016;2023-08-31T03:12:21;9.10;;;4.97;;
29712;SDS011;16623;53.632;10.016;2023-08-31T03:14:47;5.57;;;4.68;;
29712;SDS011;16623;53.632;10.016;2023-08-31T03:17:13;8.45;;;5.20;;
29712;SDS011;16623;53.632;10.016;2023-08-31T03:19:38;8.80;;;5.45;;
29712;SDS011;16623;53.632;10.016;2023-08-31T03:22:04;8.82;;;4.78;;
29712;SDS011;16623;53.632;10.016;2023-08-31T03:24:29;7.22;;;4.85;;
29712;SDS011;16623;53.632;10.016;2023-08-31T03:26:57;7.97;;;5.43;;
29712;SDS011;16623;53.632;10.016;2023-08-31T03:29:23;8.20;;;4.55;;
29712;SDS011;16623;53.632;10.016;2023-08-31T03:31:51;8.63;;;4.22;;
29712;SDS011;16623;53.632;10.016;2023-08-31T03:34:16;9.48;;;5.18;;
29712;SDS011;16623;53.632;10.016;2023-08-31T03:36:42;10.00;;;5.22;;
29712;SDS011;16623;53.632;10.016;2023-08-31T03:39:08;8.15;;;4.60;;
29712;SDS011;16623;53.632;10.016;2023-08-31T03:41:34;7.13;;;4.68;;
29712;SDS011;16623;53.632;10.016;2023-08-31T03:44:00;13.30;;;4.53;;
29712;SDS011;16623;53.632;10.016;2023-08-31T03:46:26;7.75;;;4.38;;
29712;SDS011;16623;53.632;10.016;2023-08-31T03:48:51;6.90;;;4.30;;
29712;SDS011;16623;53.632;10.016;2023-08-31T03:51:17;7.50;;;4.13;;
29712;SDS011;16623;53.632;10.016;2023-08-31T03:53:42;6.20;;;4.07;;
29712;SDS011;16623;53.632;10.016;2023-08-31T03:56:09;9.93;;;4.15;;
29712;SDS011;16623;53.632;10.016;2023-08-31T03:58:35;6.82;;;4.10;;
29712;SDS011;16623;53.632;10.016;2023-08-31T04:01:00;6.88;;;3.85;;
29712;SDS011;16623;53.632;10.016;2023-08-31T04:03:29;8.10;;;3.63;;
29712;SDS011;16623;53.632;10.016;2023-08-31T04:05:54;4.80;;;3.42;;
29712;SDS011;16623;53.632;10.016;2023-08-31T04:08:20;7.30;;;4.57;;
29712;SDS011;16623;53.632;10.016;2023-08-31T04:10:46;5.30;;;4.03;;
29712;SDS011;16623;53.632;10.016;2023-08-31T04:13:11;8.27;;;3.88;;
29712;SDS011;16623;53.632;10.016;2023-08-31T04:15:37;11.80;;;3.45;;
29712;SDS011;16623;53.632;10.016;2023-08-31T04:18:03;6.93;;;3.45;;
29712;SDS011;16623;53.632;10.016;2023-08-31T04:20:29;7.80;;;3.50;;
29712;SDS011;16623;53.632;10.016;2023-08-31T04:22:54;5.40;;;3.38;;
29712;SDS011;16623;53.632;10.016;2023-08-31T04:25:20;7.50;;;3.55;;
29712;SDS011;16623;53.632;10.016;2023-08-31T04:27:45;6.75;;;3.10;;
29712;SDS011;16623;53.632;10.016;2023-08-31T04:30:11;6.88;;;3.92;;
29712;SDS011;16623;53.632;10.016;2023-08-31T04:32:37;11.27;;;5.07;;
29712;SDS011;16623;53.632;10.016;2023-08-31T04:35:03;10.98;;;4.60;;
29712;SDS011;16623;53.632;10.016;2023-08-31T04:37:30;7.93;;;3.50;;
29712;SDS011;16623;53.632;10.016;2023-08-31T04:39:56;7.40;;;3.38;;
29712;SDS011;16623;53.632;10.016;2023-08-31T04:42:23;8.02;;;3.28;;
29712;SDS011;16623;53.632;10.016;2023-08-31T04:44:49;9.05;;;3.38;;
29712;SDS011;16623;53.632;10.016;2023-08-31T04:47:14;7.40;;;3.63;;
29712;SDS011;16623;53.632;10.016;2023-08-31T04:49:43;10.20;;;3.97;;
29712;SDS011;16623;53.632;10.016;2023-08-31T04:52:09;7.60;;;3.25;;
29712;SDS011;16623;53.632;10.016;2023-08-31T04:54:34;11.10;;;3.83;;
29712;SDS011;16623;53.632;10.016;2023-08-31T04:56:59;5.70;;;3.40;;
29712;SDS011;16623;53.632;10.016;2023-08-31T04:59:25;6.43;;;3.75;;
29712;SDS011;16623;53.632;10.016;2023-08-31T05:01:51;7.32;;;3.85;;
29712;SDS011;16623;53.632;10.016;2023-08-31T05:04:16;7.38;;;4.28;;
29712;SDS011;16623;53.632;10.016;2023-08-31T05:06:42;9.80;;;4.47;;
29712;SDS011;16623;53.632;10.016;2023-08-31T05:09:07;7.10;;;4.78;;
29712;SDS011;16623;53.632;10.016;2023-08-31T05:11:34;7.85;;;4.18;;
29712;SDS011;16623;53.632;10.016;2023-08-31T05:14:00;12.43;;;5.57;;
29712;SDS011;16623;53.632;10.016;2023-08-31T05:16:25;10.27;;;4.22;;
29712;SDS011;16623;53.632;10.016;2023-08-31T05:18:51;8.45;;;4.32;;
29712;SDS011;16623;53.632;10.016;2023-08-31T05:21:18;8.52;;;4.63;;
29712;SDS011;16623;53.632;10.016;2023-08-31T05:23:43;8.30;;;4.20;;
29712;SDS011;16623;53.632;10.016;2023-08-31T05:26:09;11.18;;;4.72;;
29712;SDS011;16623;53.632;10.016;2023-08-31T05:28:35;10.25;;;4.63;;
29712;SDS011;16623;53.632;10.016;2023-08-31T05:31:01;11.57;;;4.93;;
29712;SDS011;16623;53.632;10.016;2023-08-31T05:33:28;14.10;;;4.90;;
29712;SDS011;16623;53.632;10.016;2023-08-31T05:35:55;8.20;;;4.82;;
29712;SDS011;16623;53.632;10.016;2023-08-31T05:38:21;6.85;;;3.97;;
29712;SDS011;16623;53.632;10.016;2023-08-31T05:40:46;7.07;;;4.78;;
29712;SDS011;16623;53.632;10.016;2023-08-31T05:43:12;12.13;;;4.00;;
29712;SDS011;16623;53.632;10.016;2023-08-31T05:45:38;7.60;;;3.75;;
29712;SDS011;16623;53.632;10.016;2023-08-31T05:48:04;16.58;;;4.90;;
29712;SDS011;16623;53.632;10.016;2023-08-31T05:50:30;8.55;;;3.90;;
29712;SDS011;16623;53.632;10.016;2023-08-31T05:52:55;9.57;;;4.10;;
29712;SDS011;16623;53.632;10.016;2023-08-31T05:55:21;8.95;;;4.30;;
29712;SDS011;16623;53.632;10.016;2023-08-31T05:57:47;8.43;;;4.45;;
29712;SDS011;16623;53.632;10.016;2023-08-31T06:00:13;7.85;;;3.88;;
29712;SDS011;16623;53.632;10.016;2023-08-31T06:02:39;9.27;;;4.15;;
29712;SDS011;16623;53.632;10.016;2023-08-31T06:05:05;9.32;;;4.10;;
29712;SDS011;16623;53.632;10.016;2023-08-31T06:07:31;5.75;;;3.17;;
29712;SDS011;16623;53.632;10.016;2023-08-31T06:09:57;8.98;;;3.90;;
29712;SDS011;16623;53.632;10.016;2023-08-31T06:12:22;6.43;;;3.60;;
29712;SDS011;16623;53.632;10.016;2023-08-31T06:14:48;9.80;;;4.10;;
29712;SDS011;16623;53.632;10.016;2023-08-31T06:17:14;10.18;;;3.83;;
29712;SDS011;16623;53.632;10.016;2023-08-31T06:19:42;8.32;;;3.10;;
29712;SDS011;16623;53.632;10.016;2023-08-31T06:22:08;4.20;;;3.35;;
29712;SDS011;16623;53.632;10.016;2023-08-31T06:24:33;10.75;;;3.53;;
29712;SDS011;16623;53.632;10.016;2023-08-31T06:26:59;12.45;;;3.42;;
29712;SDS011;16623;53.632;10.016;2023-08-31T06:29:25;8.98;;;3.33;;
29712;SDS011;16623;53.632;10.016;2023-08-31T06:31:51;6.63;;;3.17;;
29712;SDS011;16623;53.632;10.016;2023-08-31T06:34:17;11.05;;;2.80;;
29712;SDS011;16623;53.632;10.016;2023-08-31T06:36:42;9.45;;;3.90;;
29712;SDS011;16623;53.632;10.016;2023-08-31T06:39:07;6.75;;;3.65;;
29712;SDS011;16623;53.632;10.016;2023-08-31T06:41:33;10.63;;;3.40;;
29712;SDS011;16623;53.632;10.016;2023-08-31T06:43:59;5.72;;;3.40;;
29712;SDS011;16623;53.632;10.016;2023-08-31T06:46:25;9.35;;;3.45;;
29712;SDS011;16623;53.632;10.016;2023-08-31T06:48:50;5.20;;;2.97;;
29712;SDS011;16623;53.632;10.016;2023-08-31T06:51:16;9.20;;;3.10;;
29712;SDS011;16623;53.632;10.016;2023-08-31T06:53:44;7.53;;;2.83;;
29712;SDS011;16623;53.632;10.016;2023-08-31T06:56:10;7.68;;;3.13;;
29712;SDS011;16623;53.632;10.016;2023-08-31T06:58:35;8.70;;;2.80;;
29712;SDS011;16623;53.632;10.016;2023-08-31T07:01:02;7.88;;;2.92;;
29712;SDS011;16623;53.632;10.016;2023-08-31T07:03:31;5.60;;;3.15;;
29712;SDS011;16623;53.632;10.016;2023-08-31T07:05:56;5.00;;;2.97;;
29712;SDS011;16623;53.632;10.016;2023-08-31T07:08:22;5.03;;;2.85;;
29712;SDS011;16623;53.632;10.016;2023-08-31T07:10:49;7.75;;;3.20;;
29712;SDS011;16623;53.632;10.016;2023-08-31T07:13:15;6.18;;;2.92;;
29712;SDS011;16623;53.632;10.016;2023-08-31T07:15:43;21.63;;;3.20;;
29712;SDS011;16623;53.632;10.016;2023-08-31T07:18:09;8.15;;;2.60;;
29712;SDS011;16623;53.632;10.016;2023-08-31T07:20:37;3.42;;;1.80;;
29712;SDS011;16623;53.632;10.016;2023-08-31T07:23:03;10.98;;;2.15;;
29712;SDS011;16623;53.632;10.016;2023-08-31T07:25:29;3.58;;;1.90;;
29712;SDS011;16623;53.632;10.016;2023-08-31T07:27:54;5.93;;;2.22;;
29712;SDS011;16623;53.632;10.016;2023-08-31T07:30:20;4.07;;;1.90;;
29712;SDS011;16623;53.632;10.016;2023-08-31T07:32:45;5.85;;;2.08;;
29712;SDS011;16623;53.632;10.016;2023-08-31T07:35:11;7.03;;;2.13;;
29712;SDS011;16623;53.632;10.016;2023-08-31T07:37:37;3.13;;;1.98;;
29712;SDS011;16623;53.632;10.016;2023-08-31T07:40:02;2.67;;;1.80;;
29712;SDS011;16623;53.632;10.016;2023-08-31T07:42:33;7.03;;;1.85;;
29712;SDS011;16623;53.632;10.016;2023-08-31T07:44:59;6.00;;;2.97;;
29712;SDS011;16623;53.632;10.016;2023-08-31T07:47:28;4.38;;;1.83;;
29712;SDS011;16623;53.632;10.016;2023-08-31T07:49:53;3.65;;;1.67;;
29712;SDS011;16623;53.632;10.016;2023-08-31T07:52:19;6.15;;;1.40;;
29712;SDS011;16623;53.632;10.016;2023-08-31T07:54:44;5.30;;;1.67;;
29712;SDS011;16623;53.632;10.016;2023-08-31T07:57:10;3.15;;;1.58;;
29712;SDS011;16623;53.632;10.016;2023-08-31T07:59:35;3.00;;;1.40;;
29712;SDS011;16623;53.632;10.016;2023-08-31T08:02:04;3.65;;;1.40;;
29712;SDS011;16623;53.632;10.016;2023-08-31T08:04:30;4.97;;;1.65;;
29712;SDS011;16623;53.632;10.016;2023-08-31T08:06:56;5.47;;;1.63;;
29712;SDS011;16623;53.632;10.016;2023-08-31T08:09:21;6.50;;;1.35;;
29712;SDS011;16623;53.632;10.016;2023-08-31T08:11:47;4.25;;;1.83;;
29712;SDS011;16623;53.632;10.016;2023-08-31T08:14:12;4.47;;;1.55;;
29712;SDS011;16623;53.632;10.016;2023-08-31T08:16:38;4.28;;;1.60;;
29712;SDS011;16623;53.632;10.016;2023-08-31T08:19:05;8.05;;;1.90;;
29712;SDS011;16623;53.632;10.016;2023-08-31T08:21:31;3.95;;;1.48;;
29712;SDS011;16623;53.632;10.016;2023-08-31T08:23:57;3.30;;;1.75;;
29712;SDS011;16623;53.632;10.016;2023-08-31T08:26:22;2.97;;;1.77;;
29712;SDS011;16623;53.632;10.016;2023-08-31T08:28:48;3.95;;;1.80;;
29712;SDS011;16623;53.632;10.016;2023-08-31T08:31:13;3.55;;;1.85;;
29712;SDS011;16623;53.632;10.016;2023-08-31T08:33:39;3.42;;;1.92;;
29712;SDS011;16623;53.632;10.016;2023-08-31T08:36:05;5.35;;;2.10;;
29712;SDS011;16623;53.632;10.016;2023-08-31T08:38:31;4.00;;;2.17;;
29712;SDS011;16623;53.632;10.016;2023-08-31T08:40:56;5.35;;;1.95;;
29712;SDS011;16623;53.632;10.016;2023-08-31T08:43:25;3.95;;;2.10;;
29712;SDS011;16623;53.632;10.016;2023-08-31T08:45:52;5.35;;;2.10;;
29712;SDS011;16623;53.632;10.016;2023-08-31T08:48:19;5.80;;;2.55;;
29712;SDS011;16623;53.632;10.016;2023-08-31T08:50:46;2.95;;;2.00;;
29712;SDS011;16623;53.632;10.016;2023-08-31T08:53:11;6.13;;;2.13;;
29712;SDS011;16623;53.632;10.016;2023-08-31T08:55:40;6.70;;;1.95;;
29712;SDS011;16623;53.632;10.016;2023-08-31T08:58:06;3.50;;;1.80;;
29712;SDS011;16623;53.632;10.016;2023-08-31T09:00:32;2.28;;;1.77;;
29712;SDS011;16623;53.632;10.016;2023-08-31T09:02:58;4.03;;;2.25;;
29712;SDS011;16623;53.632;10.016;2023-08-31T09:05:25;6.72;;;1.55;;
29712;SDS011;16623;53.632;10.016;2023-08-31T09:08:00;7.88;;;2.35;;
29712;SDS011;16623;53.632;10.016;2023-08-31T09:10:43;4.68;;;1.90;;
29712;SDS011;16623;53.632;10.016;2023-08-31T09:13:10;7.20;;;2.00;;
29712;SDS011;16623;53.632;10.016;2023-08-31T09:15:41;3.45;;;1.77;;
29712;SDS011;16623;53.632;10.016;2023-08-31T09:18:15;3.47;;;2.17;;
29712;SDS011;16623;53.632;10.016;2023-08-31T09:20:47;4.82;;;2.13;;
29712;SDS011;16623;53.632;10.016;2023-08-31T09:23:13;6.82;;;2.20;;
29712;SDS011;16623;53.632;10.016;2023-08-31T09:25:43;8.18;;;2.03;;
29712;SDS011;16623;53.632;10.016;2023-08-31T09:28:15;4.03;;;2.08;;
29712;SDS011;16623;53.632;10.016;2023-08-31T09:30:41;3.75;;;2.40;;
29712;SDS011;16623;53.632;10.016;2023-08-31T09:33:13;4.20;;;1.90;;
29712;SDS011;16623;53.632;10.016;2023-08-31T09:35:51;3.58;;;1.80;;
29712;SDS011;16623;53.632;10.016;2023-08-31T09:38:19;3.95;;;2.35;;
29712;SDS011;16623;53.632;10.016;2023-08-31T09:40:44;9.02;;;2.50;;
29712;SDS011;16623;53.632;10.016;2023-08-31T09:43:10;4.65;;;1.58;;
29712;SDS011;16623;53.632;10.016;2023-08-31T09:45:36;5.93;;;2.05;;
29712;SDS011;16623;53.632;10.016;2023-08-31T09:48:04;8.82;;;2.40;;
29712;SDS011;16623;53.632;10.016;2023-08-31T09:50:32;5.70;;;2.05;;
29712;SDS011;16623;53.632;10.016;2023-08-31T09:53:03;4.45;;;1.92;;
29712;SDS011;16623;53.632;10.016;2023-08-31T09:55:30;5.38;;;1.92;;
29712;SDS011;16623;53.632;10.016;2023-08-31T09:57:57;6.68;;;1.83;;
29712;SDS011;16623;53.632;10.016;2023-08-31T10:00:27;3.10;;;1.90;;
29712;SDS011;16623;53.632;10.016;2023-08-31T10:02:55;4.10;;;1.80;;
29712;SDS011;16623;53.632;10.016;2023-08-31T10:05:23;3.95;;;1.90;;
29712;SDS011;16623;53.632;10.016;2023-08-31T10:07:50;5.03;;;2.25;;
29712;SDS011;16623;53.632;10.016;2023-08-31T10:10:16;7.40;;;1.77;;
29712;SDS011;16623;53.632;10.016;2023-08-31T10:12:44;3.95;;;1.73;;
29712;SDS011;16623;53.632;10.016;2023-08-31T10:15:10;3.53;;;1.65;;
29712;SDS011;16623;53.632;10.016;2023-08-31T10:17:37;3.40;;;1.92;;
29712;SDS011;16623;53.632;10.016;2023-08-31T10:20:06;3.75;;;1.73;;
29712;SDS011;16623;53.632;10.016;2023-08-31T10:22:33;5.30;;;1.83;;
29712;SDS011;16623;53.632;10.016;2023-08-31T10:25:02;2.95;;;1.60;;
29712;SDS011;16623;53.632;10.016;2023-08-31T10:27:40;4.60;;;2.08;;
29712;SDS011;16623;53.632;10.016;2023-08-31T10:35:41;4.80;;;2.03;;
29712;SDS011;16623;53.632;10.016;2023-08-31T10:38:13;4.80;;;1.80;;
29712;SDS011;16623;53.632;10.016;2023-08-31T10:43:43;4.18;;;1.92;;
29712;SDS011;16623;53.632;10.016;2023-08-31T10:46:18;4.50;;;2.13;;
29712;SDS011;16623;53.632;10.016;2023-08-31T10:49:06;4.15;;;1.75;;
29712;SDS011;16623;53.632;10.016;2023-08-31T10:51:47;4.32;;;1.75;;
29712;SDS011;16623;53.632;10.016;2023-08-31T10:59:19;7.32;;;2.33;;
29712;SDS011;16623;53.632;10.016;2023-08-31T11:01:55;2.88;;;2.17;;
29712;SDS011;16623;53.632;10.016;2023-08-31T11:04:25;4.57;;;2.38;;
29712;SDS011;16623;53.632;10.016;2023-08-31T11:09:37;1.92;;;1.83;;
29712;SDS011;16623;53.632;10.016;2023-08-31T11:12:03;10.10;;;2.38;;
29712;SDS011;16623;53.632;10.016;2023-08-31T11:14:29;4.22;;;1.67;;
29712;SDS011;16623;53.632;10.016;2023-08-31T11:16:54;2.90;;;1.50;;
29712;SDS011;16623;53.632;10.016;2023-08-31T11:19:20;2.67;;;1.48;;
29712;SDS011;16623;53.632;10.016;2023-08-31T11:21:46;3.42;;;1.67;;
29712;SDS011;16623;53.632;10.016;2023-08-31T11:24:11;5.43;;;1.70;;
29712;SDS011;16623;53.632;10.016;2023-08-31T11:26:37;4.80;;;1.10;;
29712;SDS011;16623;53.632;10.016;2023-08-31T11:29:06;1.48;;;1.05;;
29712;SDS011;16623;53.632;10.016;2023-08-31T11:31:32;2.13;;;1.17;;
29712;SDS011;16623;53.632;10.016;2023-08-31T11:34:04;2.53;;;1.20;;
29712;SDS011;16623;53.632;10.016;2023-08-31T11:36:30;5.38;;;1.23;;
29712;SDS011;16623;53.632;10.016;2023-08-31T11:38:56;3.20;;;1.35;;
29712;SDS011;16623;53.632;10.016;2023-08-31T11:41:22;3.15;;;1.00;;
29712;SDS011;16623;53.632;10.016;2023-08-31T11:43:48;3.17;;;1.10;;
29712;SDS011;16623;53.632;10.016;2023-08-31T11:46:14;2.75;;;2.00;;
29712;SDS011;16623;53.632;10.016;2023-08-31T11:48:43;2.90;;;1.00;;
29712;SDS011;16623;53.632;10.016;2023-08-31T11:51:09;5.53;;;1.30;;
29712;SDS011;16623;53.632;10.016;2023-08-31T11:53:36;1.48;;;1.10;;
29712;SDS011;16623;53.632;10.016;2023-08-31T11:56:02;1.40;;;1.10;;
29712;SDS011;16623;53.632;10.016;2023-08-31T11:58:28;3.05;;;0.85;;
29712;SDS011;16623;53.632;10.016;2023-08-31T12:00:54;1.67;;;0.80;;
29712;SDS011;16623;53.632;10.016;2023-08-31T12:03:21;3.80;;;1.02;;
29712;SDS011;16623;53.632;10.016;2023-08-31T12:05:47;4.25;;;1.00;;
29712;SDS011;16623;53.632;10.016;2023-08-31T12:08:14;2.20;;;0.90;;
29712;SDS011;16623;53.632;10.016;2023-08-31T12:10:41;2.72;;;0.90;;
29712;SDS011;16623;53.632;10.016;2023-08-31T12:13:07;3.15;;;0.90;;
29712;SDS011;16623;53.632;10.016;2023-08-31T12:15:34;4.85;;;1.10;;
29712;SDS011;16623;53.632;10.016;2023-08-31T12:18:06;5.00;;;1.20;;
29712;SDS011;16623;53.632;10.016;2023-08-31T12:20:32;2.63;;;1.25;;
29712;SDS011;16623;53.632;10.016;2023-08-31T12:23:05;1.80;;;0.80;;
29712;SDS011;16623;53.632;10.016;2023-08-31T12:25:32;3.13;;;0.93;;
29712;SDS011;16623;53.632;10.016;2023-08-31T12:27:57;6.35;;;1.23;;
29712;SDS011;16623;53.632;10.016;2023-08-31T12:30:23;4.30;;;0.70;;
29712;SDS011;16623;53.632;10.016;2023-08-31T12:32:48;3.35;;;0.80;;
29712;SDS011;16623;53.632;10.016;2023-08-31T12:35:14;6.78;;;1.23;;
29712;SDS011;16623;53.632;10.016;2023-08-31T12:37:40;1.88;;;0.90;;
29712;SDS011;16623;53.632;10.016;2023-08-31T12:40:06;1.90;;;0.88;;
29712;SDS011;16623;53.632;10.016;2023-08-31T12:42:34;1.90;;;0.80;;
29712;SDS011;16623;53.632;10.016;2023-08-31T12:44:59;2.03;;;0.70;;
29712;SDS011;16623;53.632;10.016;2023-08-31T12:47:25;1.45;;;0.70;;
29712;SDS011;16623;53.632;10.016;2023-08-31T12:49:51;1.73;;;0.80;;
29712;SDS011;16623;53.632;10.016;2023-08-31T12:52:16;0.60;;;0.60;;
29712;SDS011;16623;53.632;10.016;2023-08-31T12:54:42;2.58;;;0.63;;
29712;SDS011;16623;53.632;10.016;2023-08-31T12:57:07;3.95;;;0.80;;
29712;SDS011;16623;53.632;10.016;2023-08-31T12:59:34;4.65;;;1.50;;
29712;SDS011;16623;53.632;10.016;2023-08-31T13:01:59;0.93;;;0.70;;
29712;SDS011;16623;53.632;10.016;2023-08-31T13:04:25;1.52;;;0.75;;
29712;SDS011;16623;53.632;10.016;2023-08-31T13:06:50;2.03;;;0.60;;
29712;SDS011;16623;53.632;10.016;2023-08-31T13:09:16;2.75;;;1.13;;
29712;SDS011;16623;53.632;10.016;2023-08-31T13:11:41;2.35;;;0.77;;
29712;SDS011;16623;53.632;10.016;2023-08-31T13:14:07;1.50;;;0.70;;
29712;SDS011;16623;53.632;10.016;2023-08-31T13:16:33;2.40;;;0.75;;
29712;SDS011;16623;53.632;10.016;2023-08-31T13:19:01;1.05;;;0.70;;
29712;SDS011;16623;53.632;10.016;2023-08-31T13:21:27;1.30;;;0.73;;
29712;SDS011;16623;53.632;10.016;2023-08-31T13:23:53;1.17;;;0.77;;
29712;SDS011;16623;53.632;10.016;2023-08-31T13:26:18;1.20;;;0.80;;
29712;SDS011;16623;53.632;10.016;2023-08-31T13:28:44;3.78;;;0.63;;
29712;SDS011;16623;53.632;10.016;2023-08-31T13:31:10;1.50;;;0.65;;
29712;SDS011;16623;53.632;10.016;2023-08-31T13:33:36;1.23;;;0.88;;
29712;SDS011;16623;53.632;10.016;2023-08-31T13:36:02;0.88;;;0.50;;
29712;SDS011;16623;53.632;10.016;2023-08-31T13:38:29;1.77;;;0.70;;
29712;SDS011;16623;53.632;10.016;2023-08-31T13:40:55;0.98;;;0.65;;
29712;SDS011;16623;53.632;10.016;2023-08-31T13:43:22;2.30;;;0.98;;
29712;SDS011;16623;53.632;10.016;2023-08-31T13:45:48;2.58;;;0.80;;
29712;SDS011;16623;53.632;10.016;2023-08-31T13:48:14;0.95;;;0.68;;
29712;SDS011;16623;53.632;10.016;2023-08-31T13:50:39;1.88;;;0.70;;
29712;SDS011;16623;53.632;10.016;2023-08-31T13:53:05;1.50;;;0.70;;
29712;SDS011;16623;53.632;10.016;2023-08-31T13:55:30;1.52;;;0.75;;
29712;SDS011;16623;53.632;10.016;2023-08-31T13:57:57;1.55;;;0.90;;
29712;SDS011;16623;53.632;10.016;2023-08-31T14:00:31;2.75;;;0.90;;
29712;SDS011;16623;53.632;10.016;2023-08-31T14:02:56;12.70;;;1.40;;
29712;SDS011;16623;53.632;10.016;2023-08-31T14:05:23;1.70;;;0.70;;
29712;SDS011;16623;53.632;10.016;2023-08-31T14:07:49;1.70;;;0.77;;
29712;SDS011;16623;53.632;10.016;2023-08-31T14:10:15;2.05;;;0.85;;
29712;SDS011;16623;53.632;10.016;2023-08-31T14:12:40;1.17;;;0.70;;
29712;SDS011;16623;53.632;10.016;2023-08-31T14:15:06;2.00;;;0.70;;
29712;SDS011;16623;53.632;10.016;2023-08-31T14:17:32;2.03;;;0.55;;
29712;SDS011;16623;53.632;10.016;2023-08-31T14:20:00;1.40;;;0.70;;
29712;SDS011;16623;53.632;10.016;2023-08-31T14:22:28;1.33;;;0.85;;
29712;SDS011;16623;53.632;10.016;2023-08-31T14:24:54;1.88;;;0.75;;
29712;SDS011;16623;53.632;10.016;2023-08-31T14:27:20;3.55;;;0.70;;
29712;SDS011;16623;53.632;10.016;2023-08-31T14:29:45;2.03;;;0.77;;
29712;SDS011;16623;53.632;10.016;2023-08-31T14:32:11;2.17;;;0.70;;
29712;SDS011;16623;53.632;10.016;2023-08-31T14:34:37;4.97;;;0.77;;
29712;SDS011;16623;53.632;10.016;2023-08-31T14:37:03;2.30;;;0.80;;
29712;SDS011;16623;53.632;10.016;2023-08-31T14:39:28;2.50;;;0.70;;
29712;SDS011;16623;53.632;10.016;2023-08-31T14:41:56;1.10;;;0.63;;
29712;SDS011;16623;53.632;10.016;2023-08-31T14:44:22;2.97;;;0.65;;
29712;SDS011;16623;53.632;10.016;2023-08-31T14:46:48;1.63;;;0.70;;
29712;SDS011;16623;53.632;10.016;2023-08-31T14:49:14;1.35;;;0.60;;
29712;SDS011;16623;53.632;10.016;2023-08-31T14:51:39;1.35;;;0.63;;
29712;SDS011;16623;53.632;10.016;2023-08-31T14:54:05;2.95;;;0.68;;
29712;SDS011;16623;53.632;10.016;2023-08-31T14:56:30;1.38;;;0.70;;